createdAt,value
2023-02-17T00:00:39.357Z,8.40
2023-02-17T00:03:06.067Z,8.40
2023-02-17T00:05:32.838Z,8.40
2023-02-17T00:07:59.542Z,8.40
2023-02-17T00:10:26.263Z,8.40
2023-02-17T00:12:54.997Z,8.40
2023-02-17T00:15:21.870Z,8.40
2023-02-17T00:17:48.593Z,8.40
2023-02-17T00:20:15.362Z,8.40
2023-02-17T00:22:42.195Z,8.40
2023-02-17T00:25:08.922Z,8.40
2023-02-17T00:27:35.649Z,8.50
2023-02-17T00:30:02.420Z,8.40
2023-02-17T00:32:29.208Z,8.40
2023-02-17T00:34:58.394Z,8.40
2023-02-17T00:37:26.026Z,8.50
2023-02-17T00:39:52.807Z,9.00
2023-02-17T00:42:19.716Z,8.40
2023-02-17T00:44:46.402Z,8.50
2023-02-17T00:47:13.083Z,8.60
2023-02-17T00:49:39.835Z,8.60
2023-02-17T00:52:06.558Z,8.70
2023-02-17T00:54:33.275Z,8.70
2023-02-17T00:57:00.044Z,8.70
2023-02-17T00:59:26.769Z,8.80
2023-02-17T01:01:54.967Z,8.90
2023-02-17T01:04:21.760Z,8.90
2023-02-17T01:06:48.510Z,8.90
2023-02-17T01:09:15.470Z,8.90
2023-02-17T01:11:43.644Z,8.90
2023-02-17T01:14:13.451Z,8.90
2023-02-17T01:16:44.717Z,8.90
2023-02-17T01:19:14.681Z,8.90
2023-02-17T01:21:41.666Z,8.90
2023-02-17T01:24:19.341Z,8.90
2023-02-17T01:26:47.626Z,8.90
2023-02-17T01:29:23.445Z,8.90
2023-02-17T01:31:51.386Z,8.80
2023-02-17T01:34:18.168Z,8.80
2023-02-17T01:36:44.924Z,8.70
2023-02-17T01:39:14.832Z,8.60
2023-02-17T01:41:42.229Z,8.60
2023-02-17T01:44:36.568Z,8.60
2023-02-17T01:47:03.344Z,8.70
2023-02-17T01:49:32.254Z,8.90
2023-02-17T01:52:22.586Z,8.70
2023-02-17T01:54:58.069Z,8.70
2023-02-17T01:57:30.341Z,8.70
2023-02-17T01:59:57.402Z,8.70
2023-02-17T02:02:24.456Z,8.70
2023-02-17T02:04:53.833Z,8.70
2023-02-17T02:09:59.413Z,8.60
2023-02-17T02:12:46.248Z,8.60
2023-02-17T02:15:17.102Z,8.70
2023-02-17T02:18:20.880Z,8.60
2023-02-17T02:21:34.458Z,8.60
2023-02-17T02:24:26.474Z,8.60
2023-02-17T02:27:26.155Z,8.60
2023-02-17T02:29:55.952Z,8.60
2023-02-17T02:32:56.615Z,8.60
2023-02-17T02:35:50.983Z,8.60
2023-02-17T02:38:53.176Z,8.60
2023-02-17T02:41:29.405Z,8.60
2023-02-17T02:43:56.230Z,8.60
2023-02-17T02:46:23.115Z,8.70
2023-02-17T02:48:50.738Z,8.60
2023-02-17T02:52:10.213Z,8.60
2023-02-17T02:55:03.416Z,8.70
2023-02-17T02:57:54.293Z,8.60
2023-02-17T03:00:30.295Z,8.60
2023-02-17T03:03:09.534Z,8.60
2023-02-17T03:05:45.927Z,8.60
2023-02-17T03:08:18.028Z,8.60
2023-02-17T03:10:51.320Z,8.60
2023-02-17T03:13:19.341Z,8.60
2023-02-17T03:15:47.324Z,8.70
2023-02-17T03:18:15.767Z,8.70
2023-02-17T03:20:56.301Z,8.70
2023-02-17T03:23:23.069Z,8.70
2023-02-17T03:25:49.840Z,8.70
2023-02-17T03:28:16.616Z,8.70
2023-02-17T03:30:43.476Z,8.70
2023-02-17T03:33:10.230Z,8.70
2023-02-17T03:35:36.987Z,8.60
2023-02-17T03:38:03.877Z,8.70
2023-02-17T03:40:30.652Z,8.70
2023-02-17T03:42:57.893Z,8.70
2023-02-17T03:45:24.714Z,8.60
2023-02-17T03:47:51.477Z,8.60
2023-02-17T03:50:18.726Z,8.70
2023-02-17T03:52:46.322Z,8.70
2023-02-17T03:55:13.173Z,8.70
2023-02-17T03:57:39.889Z,8.70
2023-02-17T04:00:10.203Z,8.70
2023-02-17T04:02:36.947Z,8.70
2023-02-17T04:05:06.634Z,8.70
2023-02-17T04:07:33.398Z,8.70
2023-02-17T04:10:00.379Z,8.70
2023-02-17T04:12:27.204Z,8.70
2023-02-17T04:14:53.951Z,8.70
2023-02-17T04:17:20.746Z,8.70
2023-02-17T04:19:47.498Z,8.70
2023-02-17T04:22:14.204Z,8.70
2023-02-17T04:24:41.037Z,8.70
2023-02-17T04:27:11.509Z,8.70
2023-02-17T04:29:38.261Z,8.70
2023-02-17T04:32:05.367Z,8.80
2023-02-17T04:34:32.082Z,8.80
2023-02-17T04:36:58.806Z,8.80
2023-02-17T04:39:25.719Z,8.70
2023-02-17T04:41:52.980Z,8.80
2023-02-17T04:44:23.397Z,8.70
2023-02-17T04:46:50.123Z,8.70
2023-02-17T04:49:16.843Z,8.70
2023-02-17T04:51:43.631Z,8.70
2023-02-17T04:54:10.365Z,8.80
2023-02-17T04:56:38.566Z,8.80
2023-02-17T04:59:05.297Z,8.80
2023-02-17T05:01:33.656Z,8.80
2023-02-17T05:04:00.383Z,8.80
2023-02-17T05:06:27.217Z,8.80
2023-02-17T05:08:54.127Z,8.80
2023-02-17T05:11:20.811Z,8.90
2023-02-17T05:13:49.339Z,8.80
2023-02-17T05:16:16.233Z,8.80
2023-02-17T05:18:43.019Z,8.70
2023-02-17T05:21:09.778Z,8.80
2023-02-17T05:23:41.161Z,8.80
2023-02-17T05:26:09.224Z,8.90
2023-02-17T05:28:44.634Z,8.90
2023-02-17T05:31:12.554Z,8.90
2023-02-17T05:33:39.485Z,8.90
2023-02-17T05:36:08.695Z,9.10
2023-02-17T05:38:38.231Z,8.90
2023-02-17T05:41:05.769Z,8.90
2023-02-17T05:43:32.643Z,8.90
2023-02-17T05:46:04.282Z,9.00
2023-02-17T05:48:31.369Z,9.00
2023-02-17T05:51:04.294Z,9.00
2023-02-17T05:53:32.305Z,9.00
2023-02-17T05:56:01.203Z,9.10
2023-02-17T05:58:28.316Z,9.10
2023-02-17T06:00:55.150Z,9.10
2023-02-17T06:03:22.117Z,9.10
2023-02-17T06:05:48.999Z,9.10
2023-02-17T06:08:15.760Z,9.10
2023-02-17T06:15:25.271Z,9.30
2023-02-17T06:17:51.996Z,9.30
2023-02-17T06:20:27.890Z,9.30
2023-02-17T06:22:55.254Z,9.20
2023-02-17T06:25:52.873Z,9.20
2023-02-17T06:28:21.814Z,9.30
2023-02-17T06:30:50.035Z,9.30
2023-02-17T06:39:04.443Z,9.40
2023-02-17T06:41:35.892Z,9.40
2023-02-17T06:44:11.360Z,9.40
2023-02-17T06:46:56.389Z,9.40
2023-02-17T06:49:23.293Z,9.40
2023-02-17T06:51:53.526Z,9.40
2023-02-17T06:54:26.944Z,9.40
2023-02-17T06:56:53.827Z,9.50
2023-02-17T06:59:20.634Z,9.50
2023-02-17T07:02:15.159Z,9.50
2023-02-17T07:04:42.592Z,9.60
2023-02-17T07:07:11.070Z,9.40
2023-02-17T07:09:48.493Z,9.60
2023-02-17T07:12:15.274Z,9.60
2023-02-17T07:14:45.779Z,9.60
2023-02-17T07:17:12.623Z,9.60
2023-02-17T07:19:39.464Z,9.60
2023-02-17T07:22:09.645Z,9.60
2023-02-17T07:24:38.969Z,9.70
2023-02-17T07:27:08.106Z,9.70
2023-02-17T07:30:28.117Z,9.70
2023-02-17T07:33:38.866Z,9.70
2023-02-17T07:37:07.639Z,9.70
2023-02-17T07:43:03.234Z,9.60
2023-02-17T07:45:31.226Z,9.80
2023-02-17T07:48:04.697Z,9.80
2023-02-17T07:50:42.059Z,9.90
2023-02-17T07:53:45.643Z,10.00
2023-02-17T07:56:14.639Z,10.10
2023-02-17T07:58:43.127Z,10.20
2023-02-17T08:01:18.825Z,10.20
2023-02-17T08:04:07.918Z,10.20
2023-02-17T08:06:40.246Z,10.20
2023-02-17T08:13:20.335Z,10.10
2023-02-17T08:19:46.983Z,10.10
2023-02-17T08:22:17.306Z,10.10
2023-02-17T08:24:44.978Z,10.20
2023-02-17T08:27:12.127Z,10.10
2023-02-17T08:34:23.719Z,10.10
2023-02-17T08:36:51.889Z,10.10
2023-02-17T08:39:18.993Z,10.40
2023-02-17T08:42:24.700Z,10.10
2023-02-17T08:45:36.596Z,10.10
2023-02-17T08:48:36.994Z,10.10
2023-02-17T08:51:05.113Z,10.20
2023-02-17T08:53:32.180Z,10.20
2023-02-17T08:55:59.338Z,10.30
2023-02-17T09:01:57.692Z,10.30
2023-02-17T09:04:24.870Z,10.40
2023-02-17T09:06:55.980Z,10.60
2023-02-17T09:09:26.966Z,10.60
2023-02-17T09:15:32.809Z,10.50
2023-02-17T09:17:59.721Z,10.50
2023-02-17T09:20:27.280Z,10.60
2023-02-17T09:23:02.276Z,10.50
2023-02-17T09:25:29.241Z,10.50
2023-02-17T09:28:15.582Z,10.50
2023-02-17T09:30:42.932Z,10.40
2023-02-17T09:33:10.032Z,10.40
2023-02-17T17:36:34.988Z,10.00
2023-02-17T17:39:03.744Z,10.10
2023-02-17T17:41:30.585Z,10.00
2023-02-17T17:43:57.922Z,10.00
2023-02-17T17:46:30.993Z,10.10
2023-02-17T17:48:59.960Z,10.10
2023-02-17T17:51:28.829Z,10.10
2023-02-17T17:53:56.368Z,10.10
2023-02-17T17:56:26.860Z,10.10
2023-02-17T17:58:53.849Z,10.20
2023-02-17T18:01:21.519Z,10.30
2023-02-17T18:03:49.362Z,10.30
2023-02-17T18:06:24.521Z,10.20
2023-02-17T18:08:54.016Z,10.20
2023-02-17T18:11:21.876Z,10.30
2023-02-17T18:13:51.763Z,10.20
2023-02-17T18:16:21.461Z,10.20
2023-02-17T18:18:49.032Z,10.20
2023-02-17T18:21:15.849Z,10.20
2023-02-17T18:23:42.601Z,10.20
2023-02-17T18:26:11.798Z,10.30
2023-02-17T18:28:39.057Z,10.30
2023-02-17T18:31:08.146Z,10.40
2023-02-17T18:33:35.181Z,10.40
2023-02-17T18:36:08.448Z,10.40
2023-02-17T18:38:35.389Z,10.50
2023-02-17T18:41:03.047Z,10.40
2023-02-17T18:43:29.791Z,10.50
2023-02-17T18:45:56.627Z,10.40
2023-02-17T18:48:23.373Z,10.40
2023-02-17T18:50:50.781Z,10.40
2023-02-17T18:53:18.505Z,10.40
2023-02-17T18:55:45.264Z,10.40
2023-02-17T18:58:12.538Z,10.40
2023-02-17T19:00:39.319Z,10.40
2023-02-17T19:03:06.029Z,10.30
2023-02-17T19:05:32.764Z,10.40
2023-02-17T19:07:59.496Z,10.40
2023-02-17T19:10:26.241Z,10.20
2023-02-17T19:12:53.056Z,10.30
2023-02-17T19:15:20.876Z,10.40
2023-02-17T19:17:48.681Z,10.30
2023-02-17T19:20:17.004Z,10.30
2023-02-17T19:22:43.987Z,10.30
2023-02-17T19:25:10.840Z,10.30
2023-02-17T19:27:40.354Z,10.40
2023-02-17T19:30:09.136Z,10.30
2023-02-17T19:32:35.836Z,10.40
2023-02-17T19:35:02.762Z,10.40
2023-02-17T19:37:29.513Z,10.40
2023-02-17T19:39:56.353Z,10.40
2023-02-17T19:42:23.448Z,10.40
2023-02-17T19:44:50.136Z,10.50
2023-02-17T19:47:16.906Z,10.30
2023-02-17T19:49:43.726Z,10.40
2023-02-17T19:52:10.619Z,10.50
2023-02-17T19:54:37.542Z,10.40
2023-02-17T19:57:04.309Z,10.50
2023-02-17T19:59:33.881Z,10.40
2023-02-17T20:02:00.704Z,10.40
2023-02-17T20:04:27.622Z,10.50
2023-02-17T20:06:54.364Z,10.40
2023-02-17T20:09:22.465Z,10.40
2023-02-17T20:11:52.984Z,10.50
2023-02-17T20:14:20.708Z,10.40
2023-02-17T20:16:48.513Z,10.40
2023-02-17T20:19:15.864Z,10.40
2023-02-17T20:21:44.838Z,10.40
2023-02-17T20:24:13.736Z,10.50
2023-02-17T20:26:44.194Z,10.50
2023-02-17T20:29:12.165Z,10.40
2023-02-17T20:31:40.471Z,10.50
2023-02-17T20:34:09.055Z,10.40
2023-02-17T20:36:35.784Z,10.40
2023-02-17T20:39:02.892Z,10.40
2023-02-17T20:41:30.060Z,10.40
2023-02-17T20:43:58.630Z,10.50
2023-02-17T20:46:28.426Z,10.50
2023-02-17T20:48:56.123Z,10.50
2023-02-17T20:51:23.725Z,10.60
2023-02-17T20:53:51.089Z,10.60
2023-02-17T20:56:22.274Z,10.60
2023-02-17T20:58:49.692Z,10.60
2023-02-17T21:01:16.579Z,10.50
2023-02-17T21:03:43.362Z,10.60
2023-02-17T21:06:22.540Z,10.60
2023-02-17T21:08:55.807Z,10.50
2023-02-17T21:11:22.829Z,10.60
2023-02-17T21:13:50.100Z,10.60
2023-02-17T21:16:20.041Z,10.60
2023-02-17T21:18:47.501Z,10.60
2023-02-17T21:21:15.263Z,10.50
2023-02-17T21:23:42.303Z,10.50
2023-02-17T21:26:11.401Z,10.60
2023-02-17T21:28:38.316Z,10.60
2023-02-17T21:31:05.351Z,10.60
2023-02-17T21:33:32.204Z,10.60
2023-02-17T21:35:59.017Z,10.60
2023-02-17T21:38:25.737Z,10.60
2023-02-17T21:40:52.492Z,10.60
2023-02-17T21:43:38.518Z,10.60
2023-02-17T21:46:10.089Z,10.60
2023-02-17T21:48:40.314Z,10.70
2023-02-17T21:51:11.878Z,10.60
2023-02-17T21:53:38.761Z,10.60
2023-02-17T21:56:06.938Z,10.60
2023-02-17T21:58:33.833Z,10.60
2023-02-17T22:01:00.676Z,10.60
2023-02-17T22:03:27.697Z,10.70
2023-02-17T22:05:54.362Z,10.70
2023-02-17T22:08:21.086Z,10.80
2023-02-17T22:10:48.158Z,10.70
2023-02-17T22:13:14.890Z,10.70
2023-02-17T22:15:54.843Z,10.80
2023-02-17T22:18:21.569Z,10.80
2023-02-17T22:20:48.249Z,10.70
2023-02-17T22:23:14.951Z,10.80
2023-02-17T22:25:42.728Z,10.70
2023-02-17T22:28:11.188Z,10.80
2023-02-17T22:30:38.778Z,10.80
2023-02-17T22:33:05.637Z,10.80
2023-02-17T22:35:32.377Z,10.80
2023-02-17T22:37:59.695Z,10.80
2023-02-17T22:40:26.576Z,10.70
2023-02-17T22:42:53.274Z,10.80
2023-02-17T22:45:20.009Z,10.80
2023-02-17T22:47:46.682Z,10.80
2023-02-17T22:50:13.366Z,10.70
2023-02-17T22:52:40.176Z,10.80
2023-02-17T22:55:07.061Z,10.80
2023-02-17T22:57:33.743Z,10.80
2023-02-17T23:00:00.853Z,10.70
2023-02-17T23:02:27.826Z,10.70
2023-02-17T23:04:54.492Z,10.70
2023-02-17T23:07:23.492Z,10.70
2023-02-17T23:09:50.260Z,10.70
2023-02-17T23:12:17.026Z,10.70
2023-02-17T23:14:43.773Z,10.70
2023-02-17T23:17:12.583Z,10.70
2023-02-17T23:19:40.908Z,10.60
2023-02-17T23:22:11.387Z,10.60
2023-02-17T23:24:38.327Z,10.70
2023-02-17T23:27:06.402Z,10.60
2023-02-17T23:29:33.272Z,10.60
2023-02-17T23:32:00.393Z,10.60
2023-02-17T23:34:28.361Z,10.60
2023-02-17T23:36:55.137Z,10.50
